createdAt,value
2018-11-28T00:00:02.049Z,1014.49
2018-11-28T00:01:02.100Z,1014.45
2018-11-28T00:02:02.030Z,1014.47
2018-11-28T00:03:02.031Z,1014.45
2018-11-28T00:04:02.046Z,1014.48
2018-11-28T00:05:02.030Z,1014.48
2018-11-28T00:06:01.996Z,1014.44
2018-11-28T00:07:01.992Z,1014.43
2018-11-28T00:08:01.987Z,1014.39
2018-11-28T00:09:01.954Z,1014.41
2018-11-28T00:10:01.977Z,1014.34
2018-11-28T00:11:01.938Z,1014.38
2018-11-28T00:12:01.926Z,1014.35
2018-11-28T00:13:01.919Z,1014.36
2018-11-28T00:14:01.893Z,1014.30
2018-11-28T00:15:01.882Z,1014.31
2018-11-28T00:16:01.875Z,1014.38
2018-11-28T00:17:01.876Z,1014.39
2018-11-28T00:18:01.886Z,1014.37
2018-11-28T00:19:01.847Z,1014.38
2018-11-28T00:20:01.868Z,1014.42
2018-11-28T00:21:01.822Z,1014.36
2018-11-28T00:22:01.801Z,1014.34
2018-11-28T00:23:01.848Z,1014.32
2018-11-28T00:24:01.784Z,1014.31
2018-11-28T00:25:01.783Z,1014.27
2018-11-28T00:26:01.763Z,1014.27
2018-11-28T00:27:01.767Z,1014.23
2018-11-28T00:28:01.742Z,1014.21
2018-11-28T00:29:01.731Z,1014.19
2018-11-28T00:30:01.710Z,1014.19
2018-11-28T00:31:01.713Z,1014.19
2018-11-28T00:32:01.696Z,1014.24
2018-11-28T00:33:01.722Z,1014.19
2018-11-28T00:34:01.786Z,1014.20
2018-11-28T00:35:01.658Z,1014.23
2018-11-28T00:36:01.647Z,1014.18
2018-11-28T00:37:01.673Z,1014.18
2018-11-28T00:38:01.648Z,1014.18
2018-11-28T00:39:01.610Z,1014.17
2018-11-28T00:40:01.602Z,1014.14
2018-11-28T00:41:01.601Z,1014.10
2018-11-28T00:42:01.615Z,1014.10
2018-11-28T00:43:01.571Z,1014.10
2018-11-28T00:44:01.567Z,1014.12
2018-11-28T00:45:01.537Z,1014.12
2018-11-28T00:46:01.531Z,1014.14
2018-11-28T00:47:01.542Z,1014.12
2018-11-28T00:48:01.581Z,1014.13
2018-11-28T00:49:01.537Z,1014.10
2018-11-28T00:50:01.527Z,1014.14
2018-11-28T00:51:01.489Z,1014.13
2018-11-28T00:52:01.470Z,1014.11
2018-11-28T00:53:01.466Z,1014.12
2018-11-28T00:54:01.444Z,1014.14
2018-11-28T00:55:01.486Z,1014.10
2018-11-28T00:56:01.429Z,1014.07
2018-11-28T00:57:01.440Z,1014.08
2018-11-28T00:58:01.410Z,1014.03
2018-11-28T00:59:01.391Z,1013.97
2018-11-28T01:00:01.409Z,1013.99
2018-11-28T01:01:01.374Z,1013.94
2018-11-28T01:02:01.349Z,1013.95
2018-11-28T01:03:01.365Z,1013.91
2018-11-28T01:04:01.473Z,1013.87
2018-11-28T01:05:01.324Z,1013.89
2018-11-28T01:06:01.327Z,1013.91
2018-11-28T01:07:01.288Z,1013.92
2018-11-28T01:08:01.297Z,1013.91
2018-11-28T01:09:01.295Z,1013.89
2018-11-28T01:10:01.273Z,1013.95
2018-11-28T01:11:01.275Z,1014.00
2018-11-28T01:12:01.307Z,1013.98
2018-11-28T01:13:01.227Z,1013.99
2018-11-28T01:14:01.231Z,1014.00
2018-11-28T01:15:01.218Z,1014.00
2018-11-28T01:16:01.192Z,1013.96
2018-11-28T01:17:01.212Z,1014.00
2018-11-28T01:18:01.182Z,1013.97
2018-11-28T01:19:01.235Z,1013.96
2018-11-28T01:20:01.145Z,1013.95
2018-11-28T01:21:01.138Z,1013.93
2018-11-28T01:22:01.147Z,1013.96
2018-11-28T01:23:01.109Z,1013.98
2018-11-28T01:24:01.110Z,1013.98
2018-11-28T01:25:01.104Z,1013.97
2018-11-28T01:26:01.072Z,1013.98
2018-11-28T01:27:01.063Z,1014.03
2018-11-28T01:28:01.054Z,1014.00
2018-11-28T01:29:01.062Z,1014.02
2018-11-28T01:30:01.041Z,1014.01
2018-11-28T01:31:01.025Z,1014.03
2018-11-28T01:32:01.036Z,1014.03
2018-11-28T01:33:01.009Z,1014.09
2018-11-28T01:34:01.067Z,1014.07
2018-11-28T01:35:01.000Z,1014.12
2018-11-28T01:36:00.966Z,1014.07
2018-11-28T01:37:00.951Z,1014.10
2018-11-28T01:38:00.998Z,1014.13
2018-11-28T01:39:00.936Z,1014.13
2018-11-28T01:40:00.937Z,1014.11
2018-11-28T01:41:00.933Z,1014.13
2018-11-28T01:42:00.895Z,1014.15
2018-11-28T01:43:00.919Z,1014.09
2018-11-28T01:44:00.948Z,1014.09
2018-11-28T01:45:00.863Z,1014.03
2018-11-28T01:46:00.878Z,1014.04
2018-11-28T01:47:00.856Z,1014.08
2018-11-28T01:48:00.829Z,1014.03
2018-11-28T01:49:00.832Z,1014.03
2018-11-28T01:50:01.617Z,1014.06
2018-11-28T01:51:00.841Z,1014.05
2018-11-28T01:52:00.880Z,1014.09
2018-11-28T01:53:00.788Z,1014.10
2018-11-28T01:54:00.851Z,1014.11
2018-11-28T01:55:00.752Z,1014.07
2018-11-28T01:56:00.758Z,1014.05
2018-11-28T01:57:00.738Z,1014.04
2018-11-28T01:58:00.753Z,1014.03
2018-11-28T01:59:00.742Z,1014.02
2018-11-28T02:00:00.721Z,1014.02
2018-11-28T02:01:00.700Z,1014.03
2018-11-28T02:02:00.680Z,1014.03
2018-11-28T02:03:00.715Z,1014.00
2018-11-28T02:04:00.732Z,1014.02
2018-11-28T02:05:00.657Z,1014.05
2018-11-28T02:06:00.625Z,1014.03
2018-11-28T02:07:00.639Z,1014.03
2018-11-28T02:08:00.606Z,1014.07
2018-11-28T02:09:00.604Z,1014.04
2018-11-28T02:10:00.646Z,1014.08
2018-11-28T02:11:00.585Z,1014.13
2018-11-28T02:12:00.562Z,1014.07
2018-11-28T02:13:00.584Z,1014.04
2018-11-28T02:14:00.566Z,1014.08
2018-11-28T02:15:00.560Z,1014.02
2018-11-28T02:16:00.525Z,1014.00
2018-11-28T02:17:00.541Z,1013.92
2018-11-28T02:18:00.496Z,1013.93
2018-11-28T02:19:00.488Z,1013.91
2018-11-28T02:20:00.537Z,1013.85
2018-11-28T02:21:00.460Z,1013.87
2018-11-28T02:22:00.442Z,1013.85
2018-11-28T02:23:00.466Z,1013.93
2018-11-28T02:24:00.458Z,1013.85
2018-11-28T02:25:00.430Z,1013.87
2018-11-28T02:26:00.429Z,1013.88
2018-11-28T02:27:00.436Z,1013.87
2018-11-28T02:28:00.377Z,1013.91
2018-11-28T02:29:00.371Z,1013.91
2018-11-28T02:30:00.371Z,1013.88
2018-11-28T02:31:00.365Z,1013.86
2018-11-28T02:32:00.338Z,1013.86
2018-11-28T02:33:00.358Z,1013.81
2018-11-28T02:34:00.337Z,1013.81
2018-11-28T02:35:00.319Z,1013.79
2018-11-28T02:36:00.318Z,1013.80
2018-11-28T02:37:00.300Z,1013.79
2018-11-28T02:38:00.272Z,1013.81
2018-11-28T02:39:00.268Z,1013.78
2018-11-28T02:40:00.272Z,1013.77
2018-11-28T02:41:00.251Z,1013.78
2018-11-28T02:42:00.264Z,1013.77
2018-11-28T02:43:00.260Z,1013.78
2018-11-28T02:44:00.230Z,1013.76
2018-11-28T02:45:00.216Z,1013.75
2018-11-28T02:46:00.172Z,1013.79
2018-11-28T02:47:00.166Z,1013.75
2018-11-28T02:48:00.157Z,1013.82
2018-11-28T02:49:00.139Z,1013.76
2018-11-28T02:50:00.176Z,1013.82
2018-11-28T02:51:00.114Z,1013.80
2018-11-28T02:52:00.101Z,1013.77
2018-11-28T02:53:00.090Z,1013.74
2018-11-28T02:54:00.111Z,1013.75
2018-11-28T02:55:00.079Z,1013.74
2018-11-28T02:56:00.056Z,1013.73
2018-11-28T02:57:00.049Z,1013.78
2018-11-28T02:58:00.036Z,1013.76
2018-11-28T02:59:00.034Z,1013.72
2018-11-28T03:00:00.035Z,1013.79
2018-11-28T03:01:00.016Z,1013.75
2018-11-28T03:02:00.003Z,1013.73
2018-11-28T03:03:00.010Z,1013.73
2018-11-28T03:04:05.110Z,1013.71
2018-11-28T03:04:59.983Z,1013.68
2018-11-28T03:05:59.966Z,1013.67
2018-11-28T03:06:59.978Z,1013.65
2018-11-28T03:07:59.943Z,1013.64
2018-11-28T03:08:59.912Z,1013.61
2018-11-28T03:09:59.917Z,1013.64
2018-11-28T03:10:59.903Z,1013.63
2018-11-28T03:11:59.893Z,1013.67
2018-11-28T03:12:59.876Z,1013.61
2018-11-28T03:13:59.915Z,1013.67
2018-11-28T03:14:59.864Z,1013.62
2018-11-28T03:15:59.885Z,1013.63
2018-11-28T03:16:59.826Z,1013.62
2018-11-28T03:17:59.816Z,1013.67
2018-11-28T03:18:59.815Z,1013.67
2018-11-28T03:19:59.808Z,1013.69
2018-11-28T03:20:59.797Z,1013.73
2018-11-28T03:21:59.789Z,1013.72
2018-11-28T03:22:59.779Z,1013.71
2018-11-28T03:23:59.762Z,1013.70
2018-11-28T03:24:59.741Z,1013.72
2018-11-28T03:25:59.778Z,1013.73
2018-11-28T03:26:59.728Z,1013.73
2018-11-28T03:27:59.701Z,1013.67
2018-11-28T03:28:59.687Z,1013.74
2018-11-28T03:29:59.696Z,1013.71
2018-11-28T03:30:59.676Z,1013.77
2018-11-28T03:31:59.699Z,1013.69
2018-11-28T03:32:59.649Z,1013.74
2018-11-28T03:33:59.774Z,1013.67
2018-11-28T03:34:59.634Z,1013.74
2018-11-28T03:35:59.645Z,1013.73
2018-11-28T03:36:59.591Z,1013.71
2018-11-28T03:37:59.592Z,1013.67
2018-11-28T03:38:59.585Z,1013.69
2018-11-28T03:39:59.562Z,1013.70
2018-11-28T03:40:59.557Z,1013.69
2018-11-28T03:41:59.537Z,1013.72
2018-11-28T03:42:59.535Z,1013.73
2018-11-28T03:43:59.566Z,1013.69
2018-11-28T03:44:59.509Z,1013.69
2018-11-28T03:45:59.503Z,1013.71
2018-11-28T03:46:59.508Z,1013.69
2018-11-28T03:47:59.520Z,1013.69
2018-11-28T03:48:59.496Z,1013.69
2018-11-28T03:49:59.452Z,1013.65
2018-11-28T03:51:00.714Z,1013.58
2018-11-28T03:51:59.424Z,1013.61
2018-11-28T03:52:59.432Z,1013.58
2018-11-28T03:53:59.406Z,1013.54
2018-11-28T03:54:59.461Z,1013.56
2018-11-28T03:55:59.442Z,1013.54
2018-11-28T03:56:59.374Z,1013.55
2018-11-28T03:57:59.394Z,1013.54
2018-11-28T03:58:59.458Z,1013.55
2018-11-28T03:59:59.357Z,1013.53
2018-11-28T04:00:59.377Z,1013.52
2018-11-28T04:01:59.332Z,1013.60
2018-11-28T04:02:59.363Z,1013.56
2018-11-28T04:03:59.354Z,1013.58
2018-11-28T04:04:59.332Z,1013.58
2018-11-28T04:05:59.280Z,1013.60
2018-11-28T04:06:59.261Z,1013.60
2018-11-28T04:07:59.250Z,1013.59
2018-11-28T04:08:59.236Z,1013.54
2018-11-28T04:09:59.224Z,1013.58
2018-11-28T04:10:59.250Z,1013.56
2018-11-28T04:11:59.226Z,1013.48
2018-11-28T04:12:59.227Z,1013.55
2018-11-28T04:13:59.204Z,1013.52
2018-11-28T04:14:59.166Z,1013.54
2018-11-28T04:15:59.166Z,1013.53
2018-11-28T04:16:59.150Z,1013.51
2018-11-28T04:17:59.128Z,1013.54
2018-11-28T04:18:59.142Z,1013.54
2018-11-28T04:19:59.111Z,1013.49
2018-11-28T04:20:59.166Z,1013.54
2018-11-28T04:21:59.108Z,1013.53
2018-11-28T04:22:59.105Z,1013.53
2018-11-28T04:23:59.074Z,1013.58
2018-11-28T04:24:59.058Z,1013.59
2018-11-28T04:25:59.057Z,1013.55
2018-11-28T04:26:59.042Z,1013.55
2018-11-28T04:27:59.027Z,1013.56
2018-11-28T04:28:59.110Z,1013.57
2018-11-28T04:29:59.073Z,1013.56
2018-11-28T04:30:59.007Z,1013.56
2018-11-28T04:31:58.990Z,1013.55
2018-11-28T04:32:58.968Z,1013.59
2018-11-28T04:33:58.987Z,1013.56
2018-11-28T04:34:58.981Z,1013.57
2018-11-28T04:35:58.929Z,1013.59
2018-11-28T04:36:58.922Z,1013.61
2018-11-28T04:37:58.938Z,1013.58
2018-11-28T04:38:58.895Z,1013.58
2018-11-28T04:39:58.967Z,1013.61
2018-11-28T04:40:58.910Z,1013.56
2018-11-28T04:41:58.857Z,1013.59
2018-11-28T04:42:58.860Z,1013.63
2018-11-28T04:43:58.890Z,1013.60
2018-11-28T04:44:58.834Z,1013.62
2018-11-28T04:45:58.824Z,1013.64
2018-11-28T04:46:58.838Z,1013.61
2018-11-28T04:47:58.804Z,1013.59
2018-11-28T04:48:58.780Z,1013.57
2018-11-28T04:49:58.844Z,1013.61
2018-11-28T04:50:58.816Z,1013.61
2018-11-28T04:51:58.748Z,1013.55
2018-11-28T04:52:58.747Z,1013.56
2018-11-28T04:53:58.753Z,1013.56
2018-11-28T04:54:58.727Z,1013.57
2018-11-28T04:55:58.713Z,1013.59
2018-11-28T04:56:58.686Z,1013.58
2018-11-28T04:57:58.705Z,1013.56
2018-11-28T04:58:58.723Z,1013.55
2018-11-28T04:59:58.670Z,1013.55
2018-11-28T05:00:58.655Z,1013.51
2018-11-28T05:01:58.697Z,1013.50
2018-11-28T05:02:58.634Z,1013.56
2018-11-28T05:03:58.653Z,1013.53
2018-11-28T05:04:58.620Z,1013.50
2018-11-28T05:05:58.601Z,1013.60
2018-11-28T05:06:58.580Z,1013.53
2018-11-28T05:07:58.571Z,1013.56
2018-11-28T05:08:58.590Z,1013.58
2018-11-28T05:09:58.548Z,1013.53
2018-11-28T05:10:58.556Z,1013.54
2018-11-28T05:11:58.554Z,1013.51
2018-11-28T05:12:58.519Z,1013.53
2018-11-28T05:13:58.508Z,1013.51
2018-11-28T05:14:58.524Z,1013.52
2018-11-28T05:15:58.512Z,1013.50
2018-11-28T05:16:58.478Z,1013.46
2018-11-28T05:17:58.459Z,1013.49
2018-11-28T05:18:58.464Z,1013.43
2018-11-28T05:19:58.442Z,1013.46
2018-11-28T05:20:58.462Z,1013.43
2018-11-28T05:21:58.487Z,1013.51
2018-11-28T05:22:58.423Z,1013.46
2018-11-28T05:23:58.395Z,1013.44
2018-11-28T05:24:58.378Z,1013.46
2018-11-28T05:25:58.399Z,1013.46
2018-11-28T05:26:58.386Z,1013.47
2018-11-28T05:27:58.381Z,1013.49
2018-11-28T05:28:58.352Z,1013.46
2018-11-28T05:29:58.321Z,1013.47
2018-11-28T05:30:58.330Z,1013.47
2018-11-28T05:31:58.294Z,1013.46
2018-11-28T05:32:58.303Z,1013.45
2018-11-28T05:33:58.394Z,1013.45
2018-11-28T05:34:58.271Z,1013.40
2018-11-28T05:35:58.263Z,1013.43
2018-11-28T05:36:58.251Z,1013.43
2018-11-28T05:37:58.293Z,1013.41
2018-11-28T05:38:58.245Z,1013.44
2018-11-28T05:39:58.212Z,1013.49
2018-11-28T05:40:58.208Z,1013.48
2018-11-28T05:41:58.178Z,1013.49
2018-11-28T05:42:58.195Z,1013.49
2018-11-28T05:43:58.255Z,1013.51
2018-11-28T05:44:58.147Z,1013.53
2018-11-28T05:45:58.147Z,1013.52
2018-11-28T05:46:58.127Z,1013.54
2018-11-28T05:47:58.121Z,1013.56
2018-11-28T05:48:58.116Z,1013.55
2018-11-28T05:49:58.108Z,1013.61
2018-11-28T05:50:58.088Z,1013.59
2018-11-28T05:51:58.071Z,1013.59
2018-11-28T05:52:58.059Z,1013.61
2018-11-28T05:53:58.049Z,1013.59
2018-11-28T05:54:58.057Z,1013.64
2018-11-28T05:55:58.061Z,1013.59
2018-11-28T05:56:58.046Z,1013.58
2018-11-28T05:57:58.023Z,1013.57
2018-11-28T05:58:57.996Z,1013.58
2018-11-28T05:59:57.986Z,1013.57
2018-11-28T06:00:57.989Z,1013.56
2018-11-28T06:01:57.981Z,1013.55
2018-11-28T06:02:58.018Z,1013.53
2018-11-28T06:03:58.027Z,1013.56
2018-11-28T06:04:57.925Z,1013.56
2018-11-28T06:05:57.935Z,1013.51
2018-11-28T06:06:57.915Z,1013.52
2018-11-28T06:07:57.898Z,1013.48
2018-11-28T06:08:57.901Z,1013.48
2018-11-28T06:09:57.865Z,1013.48
2018-11-28T06:10:57.887Z,1013.54
2018-11-28T06:11:57.857Z,1013.48
2018-11-28T06:12:57.838Z,1013.55
2018-11-28T06:13:57.863Z,1013.50
2018-11-28T06:14:57.843Z,1013.53
2018-11-28T06:15:57.826Z,1013.59
2018-11-28T06:16:57.844Z,1013.55
2018-11-28T06:17:57.771Z,1013.56
2018-11-28T06:18:57.781Z,1013.55
2018-11-28T06:19:57.754Z,1013.62
2018-11-28T06:20:57.749Z,1013.56
2018-11-28T06:21:57.827Z,1013.53
2018-11-28T06:22:57.717Z,1013.54
2018-11-28T06:23:57.716Z,1013.58
2018-11-28T06:24:57.705Z,1013.50
2018-11-28T06:25:57.690Z,1013.53
2018-11-28T06:26:57.676Z,1013.56
2018-11-28T06:27:57.833Z,1013.55
2018-11-28T06:28:57.661Z,1013.52
2018-11-28T06:29:57.636Z,1013.51
2018-11-28T06:30:57.637Z,1013.50
2018-11-28T06:31:57.640Z,1013.48
2018-11-28T06:32:57.617Z,1013.52
2018-11-28T06:33:57.668Z,1013.50
2018-11-28T06:34:57.599Z,1013.51
2018-11-28T06:35:57.805Z,1013.44
2018-11-28T06:36:57.560Z,1013.46
2018-11-28T06:37:57.555Z,1013.46
2018-11-28T06:38:57.626Z,1013.45
2018-11-28T06:39:57.608Z,1013.48
2018-11-28T06:40:57.519Z,1013.47
2018-11-28T06:41:57.528Z,1013.48
2018-11-28T06:42:57.523Z,1013.54
2018-11-28T06:43:57.523Z,1013.46
2018-11-28T06:44:57.470Z,1013.54
2018-11-28T06:45:57.455Z,1013.52
2018-11-28T06:46:57.447Z,1013.55
2018-11-28T06:47:57.559Z,1013.50
2018-11-28T06:48:57.477Z,1013.54
2018-11-28T06:49:57.504Z,1013.54
2018-11-28T06:50:57.419Z,1013.51
2018-11-28T06:51:57.401Z,1013.52
2018-11-28T06:52:57.385Z,1013.54
2018-11-28T06:53:57.407Z,1013.51
2018-11-28T06:54:57.387Z,1013.54
2018-11-28T06:55:57.343Z,1013.54
2018-11-28T06:56:57.375Z,1013.56
2018-11-28T06:57:57.348Z,1013.54
2018-11-28T06:58:57.458Z,1013.58
2018-11-28T06:59:57.302Z,1013.63
2018-11-28T07:00:57.294Z,1013.64
2018-11-28T07:01:57.277Z,1013.62
2018-11-28T07:02:57.278Z,1013.65
2018-11-28T07:03:57.281Z,1013.70
2018-11-28T07:04:57.244Z,1013.74
2018-11-28T07:05:57.236Z,1013.73
2018-11-28T07:06:57.227Z,1013.76
2018-11-28T07:07:57.233Z,1013.76
2018-11-28T07:08:57.212Z,1013.75
2018-11-28T07:09:57.284Z,1013.79
2018-11-28T07:10:57.173Z,1013.75
2018-11-28T07:11:57.166Z,1013.78
2018-11-28T07:12:57.173Z,1013.82
2018-11-28T07:13:57.142Z,1013.81
2018-11-28T07:14:57.137Z,1013.85
2018-11-28T07:15:57.241Z,1013.85
2018-11-28T07:16:57.114Z,1013.89
2018-11-28T07:17:57.132Z,1013.86
2018-11-28T07:18:57.100Z,1013.92
2018-11-28T07:19:57.079Z,1013.93
2018-11-28T07:20:57.075Z,1013.95
2018-11-28T07:21:57.074Z,1013.92
2018-11-28T07:22:57.103Z,1013.99
2018-11-28T07:23:57.028Z,1013.98
2018-11-28T07:24:57.017Z,1014.02
2018-11-28T07:25:57.065Z,1013.98
2018-11-28T07:26:57.160Z,1014.03
2018-11-28T07:27:57.003Z,1013.99
2018-11-28T07:28:56.975Z,1013.99
2018-11-28T07:29:56.974Z,1014.07
2018-11-28T07:30:57.283Z,1014.15
2018-11-28T07:31:56.996Z,1014.13
2018-11-28T07:32:56.952Z,1014.10
2018-11-28T07:33:57.054Z,1014.12
2018-11-28T07:34:56.922Z,1014.18
2018-11-28T07:35:56.889Z,1014.16
2018-11-28T07:36:56.892Z,1014.17
2018-11-28T07:37:56.930Z,1014.17
2018-11-28T07:38:56.876Z,1014.19
2018-11-28T07:39:56.872Z,1014.19
2018-11-28T07:40:56.854Z,1014.20
2018-11-28T07:41:56.928Z,1014.22
2018-11-28T07:42:56.821Z,1014.20
2018-11-28T07:43:56.809Z,1014.18
2018-11-28T07:44:56.788Z,1014.17
2018-11-28T07:45:56.816Z,1014.18
2018-11-28T07:46:56.795Z,1014.20
2018-11-28T07:47:56.902Z,1014.17
2018-11-28T07:48:56.767Z,1014.18
2018-11-28T07:49:56.760Z,1014.17
2018-11-28T07:50:56.748Z,1014.19
2018-11-28T07:51:56.770Z,1014.22
2018-11-28T07:52:56.729Z,1014.17
2018-11-28T07:53:56.702Z,1014.15
2018-11-28T07:54:56.703Z,1014.21
2018-11-28T07:55:56.691Z,1014.16
2018-11-28T07:56:56.705Z,1014.22
2018-11-28T07:57:56.659Z,1014.19
2018-11-28T07:58:56.647Z,1014.21
2018-11-28T07:59:56.679Z,1014.18
2018-11-28T08:00:56.689Z,1014.21
2018-11-28T08:01:56.617Z,1014.25
2018-11-28T08:02:56.629Z,1014.19
2018-11-28T08:03:56.767Z,1014.24
2018-11-28T08:04:56.609Z,1014.24
2018-11-28T08:05:56.709Z,1014.17
2018-11-28T08:06:56.552Z,1014.18
2018-11-28T08:07:56.588Z,1014.26
2018-11-28T08:08:56.527Z,1014.26
2018-11-28T08:09:56.508Z,1014.26
2018-11-28T08:10:56.512Z,1014.23
2018-11-28T08:11:56.486Z,1014.24
2018-11-28T08:12:57.147Z,1014.25
2018-11-28T08:13:56.522Z,1014.28
2018-11-28T08:14:56.472Z,1014.28
2018-11-28T08:15:56.460Z,1014.29
2018-11-28T08:16:56.477Z,1014.26
2018-11-28T08:17:56.442Z,1014.23
2018-11-28T08:18:56.551Z,1014.28
2018-11-28T08:19:56.410Z,1014.23
2018-11-28T08:20:56.387Z,1014.28
2018-11-28T08:21:56.410Z,1014.27
2018-11-28T08:22:56.438Z,1014.27
2018-11-28T08:23:56.371Z,1014.28
2018-11-28T08:24:56.356Z,1014.29
2018-11-28T08:25:56.348Z,1014.27
2018-11-28T08:26:56.384Z,1014.28
2018-11-28T08:27:56.473Z,1014.28
2018-11-28T08:28:56.310Z,1014.28
2018-11-28T08:29:56.295Z,1014.30
2018-11-28T08:30:56.280Z,1014.26
2018-11-28T08:31:56.389Z,1014.25
2018-11-28T08:32:56.278Z,1014.25
2018-11-28T08:33:56.335Z,1014.25
2018-11-28T08:34:56.375Z,1014.23
2018-11-28T08:35:56.228Z,1014.30
2018-11-28T08:36:56.223Z,1014.23
2018-11-28T08:37:56.190Z,1014.23
2018-11-28T08:38:56.246Z,1014.22
2018-11-28T08:39:56.280Z,1014.25
2018-11-28T08:40:56.169Z,1014.28
2018-11-28T08:41:56.159Z,1014.25
2018-11-28T08:42:56.155Z,1014.23
2018-11-28T08:43:56.145Z,1014.23
2018-11-28T08:44:56.207Z,1014.21
2018-11-28T08:45:56.100Z,1014.22
2018-11-28T08:46:56.093Z,1014.23
2018-11-28T08:47:56.138Z,1014.26
2018-11-28T08:48:56.066Z,1014.24
2018-11-28T08:49:56.069Z,1014.25
2018-11-28T08:50:56.053Z,1014.21
2018-11-28T08:51:56.053Z,1014.24
2018-11-28T08:52:56.040Z,1014.26
2018-11-28T08:53:56.065Z,1014.30
2018-11-28T08:54:56.043Z,1014.32
2018-11-28T08:55:56.010Z,1014.22
2018-11-28T08:56:55.988Z,1014.18
2018-11-28T08:57:55.994Z,1014.19
2018-11-28T08:58:56.041Z,1014.19
2018-11-28T08:59:56.007Z,1014.24
2018-11-28T09:00:55.952Z,1014.19
2018-11-28T09:01:55.962Z,1014.21
2018-11-28T09:02:55.916Z,1014.24
2018-11-28T09:03:55.942Z,1014.23
2018-11-28T09:04:55.886Z,1014.23
2018-11-28T09:05:55.889Z,1014.26
2018-11-28T09:06:55.916Z,1014.21
2018-11-28T09:07:55.869Z,1014.24
2018-11-28T09:08:55.908Z,1014.25
2018-11-28T09:09:55.852Z,1014.26
2018-11-28T09:10:55.878Z,1014.21
2018-11-28T09:11:55.847Z,1014.23
2018-11-28T09:12:55.814Z,1014.32
2018-11-28T09:13:55.804Z,1014.29
2018-11-28T09:14:55.790Z,1014.22
2018-11-28T09:15:55.797Z,1014.31
2018-11-28T09:16:55.763Z,1014.26
2018-11-28T09:17:55.750Z,1014.18
2018-11-28T09:18:55.825Z,1014.24
2018-11-28T09:19:55.765Z,1014.22
2018-11-28T09:20:55.755Z,1014.22
2018-11-28T09:21:55.737Z,1014.21
2018-11-28T09:22:55.698Z,1014.22
2018-11-28T09:23:55.769Z,1014.21
2018-11-28T09:24:55.682Z,1014.22
2018-11-28T09:25:55.692Z,1014.26
2018-11-28T09:26:55.687Z,1014.26
2018-11-28T09:27:55.691Z,1014.27
2018-11-28T09:28:55.618Z,1014.28
2018-11-28T09:29:55.671Z,1014.28
2018-11-28T09:30:55.640Z,1014.28
2018-11-28T09:31:55.651Z,1014.28
2018-11-28T09:32:55.696Z,1014.25
2018-11-28T09:33:55.689Z,1014.30
2018-11-28T09:34:55.565Z,1014.27
2018-11-28T09:35:55.598Z,1014.29
2018-11-28T09:36:55.542Z,1014.30
2018-11-28T09:37:55.523Z,1014.30
2018-11-28T09:38:55.528Z,1014.28
2018-11-28T09:39:55.505Z,1014.29
2018-11-28T09:40:55.494Z,1014.28
2018-11-28T09:41:55.525Z,1014.24
2018-11-28T09:42:55.477Z,1014.26
2018-11-28T09:43:55.455Z,1014.19
2018-11-28T09:44:55.452Z,1014.22
2018-11-28T09:45:55.455Z,1014.21
2018-11-28T09:46:55.490Z,1014.20
2018-11-28T09:47:55.474Z,1014.21
2018-11-28T09:48:55.521Z,1014.14
2018-11-28T09:49:55.385Z,1014.19
2018-11-28T09:50:55.438Z,1014.22
2018-11-28T09:51:55.410Z,1014.20
2018-11-28T09:52:55.390Z,1014.22
2018-11-28T09:53:55.345Z,1014.24
2018-11-28T09:54:55.426Z,1014.23
2018-11-28T09:55:55.358Z,1014.17
2018-11-28T09:56:55.376Z,1014.20
2018-11-28T09:57:55.312Z,1014.16
2018-11-28T09:58:55.288Z,1014.20
2018-11-28T09:59:55.289Z,1014.14
2018-11-28T10:00:55.273Z,1014.15
2018-11-28T10:01:55.302Z,1014.16
2018-11-28T10:02:55.314Z,1014.12
2018-11-28T10:03:55.316Z,1014.17
2018-11-28T10:04:55.216Z,1014.11
2018-11-28T10:05:55.256Z,1014.14
2018-11-28T10:06:55.250Z,1014.15
2018-11-28T10:07:55.187Z,1014.13
2018-11-28T10:08:55.183Z,1014.13
2018-11-28T10:09:55.200Z,1014.11
2018-11-28T10:10:55.150Z,1014.06
2018-11-28T10:11:55.136Z,1014.08
2018-11-28T10:12:55.200Z,1014.10
2018-11-28T10:13:55.116Z,1014.09
2018-11-28T10:14:55.109Z,1014.07
2018-11-28T10:15:55.101Z,1014.09
2018-11-28T10:16:55.688Z,1014.09
2018-11-28T10:17:55.078Z,1014.07
2018-11-28T10:18:55.060Z,1014.05
2018-11-28T10:19:55.151Z,1014.02
2018-11-28T10:20:55.034Z,1014.03
2018-11-28T10:21:55.039Z,1013.99
2018-11-28T10:22:55.043Z,1014.03
2018-11-28T10:23:55.024Z,1014.02
2018-11-28T10:24:55.013Z,1014.02
2018-11-28T10:25:54.976Z,1013.97
2018-11-28T10:26:54.992Z,1013.93
2018-11-28T10:27:54.981Z,1013.99
2018-11-28T10:28:54.950Z,1013.99
2018-11-28T10:29:54.977Z,1013.99
2018-11-28T10:30:54.929Z,1013.98
2018-11-28T10:31:54.933Z,1013.92
2018-11-28T10:32:54.939Z,1013.92
2018-11-28T10:33:54.994Z,1013.92
2018-11-28T10:34:55.031Z,1013.92
2018-11-28T10:35:54.881Z,1013.94
2018-11-28T10:36:54.904Z,1013.90
2018-11-28T10:37:54.858Z,1013.91
2018-11-28T10:38:54.910Z,1013.90
2018-11-28T10:39:54.881Z,1013.89
2018-11-28T10:40:54.808Z,1013.88
2018-11-28T10:41:54.819Z,1013.83
2018-11-28T10:42:54.909Z,1013.78
2018-11-28T10:43:54.837Z,1013.84
2018-11-28T10:44:54.822Z,1013.77
2018-11-28T10:45:54.761Z,1013.81
2018-11-28T10:46:54.740Z,1013.79
2018-11-28T10:47:54.836Z,1013.73
2018-11-28T10:48:54.769Z,1013.72
2018-11-28T10:49:54.729Z,1013.73
2018-11-28T10:50:54.712Z,1013.74
2018-11-28T10:51:54.704Z,1013.73
2018-11-28T10:52:54.686Z,1013.79
2018-11-28T10:53:54.703Z,1013.77
2018-11-28T10:54:54.701Z,1013.80
2018-11-28T10:55:54.649Z,1013.79
2018-11-28T10:56:54.656Z,1013.72
2018-11-28T10:57:54.745Z,1013.71
2018-11-28T10:58:54.651Z,1013.70
2018-11-28T10:59:54.603Z,1013.74
2018-11-28T11:00:54.641Z,1013.74
2018-11-28T11:01:54.592Z,1013.72
2018-11-28T11:02:54.566Z,1013.71
2018-11-28T11:03:54.607Z,1013.69
2018-11-28T11:04:54.542Z,1013.68
2018-11-28T11:05:54.597Z,1013.64
2018-11-28T11:06:54.562Z,1013.62
2018-11-28T11:07:54.528Z,1013.62
2018-11-28T11:08:54.556Z,1013.67
2018-11-28T11:09:54.495Z,1013.69
2018-11-28T11:10:54.483Z,1013.66
2018-11-28T11:11:54.556Z,1013.72
2018-11-28T11:12:54.498Z,1013.65
2018-11-28T11:13:54.484Z,1013.68
2018-11-28T11:14:54.457Z,1013.70
2018-11-28T11:15:54.429Z,1013.66
2018-11-28T11:16:54.501Z,1013.67
2018-11-28T11:17:54.458Z,1013.64
2018-11-28T11:18:54.411Z,1013.65
2018-11-28T11:19:54.375Z,1013.66
2018-11-28T11:20:54.377Z,1013.63
2018-11-28T11:21:54.362Z,1013.68
2018-11-28T11:22:54.344Z,1013.67
2018-11-28T11:23:54.383Z,1013.62
2018-11-28T11:24:54.327Z,1013.58
2018-11-28T11:25:54.357Z,1013.66
2018-11-28T11:26:54.296Z,1013.56
2018-11-28T11:27:54.330Z,1013.62
2018-11-28T11:28:54.329Z,1013.59
2018-11-28T11:29:54.287Z,1013.55
2018-11-28T11:30:54.273Z,1013.55
2018-11-28T11:31:54.236Z,1013.55
2018-11-28T11:32:54.303Z,1013.63
2018-11-28T11:33:54.372Z,1013.60
2018-11-28T11:34:54.205Z,1013.59
2018-11-28T11:35:54.202Z,1013.52
2018-11-28T11:36:54.180Z,1013.51
2018-11-28T11:37:54.206Z,1013.54
2018-11-28T11:38:54.220Z,1013.47
2018-11-28T11:39:54.146Z,1013.48
2018-11-28T11:40:54.193Z,1013.48
2018-11-28T11:41:54.152Z,1013.45
2018-11-28T11:42:54.123Z,1013.41
2018-11-28T11:43:54.120Z,1013.39
2018-11-28T11:44:54.186Z,1013.42
2018-11-28T11:45:54.127Z,1013.42
2018-11-28T11:46:54.071Z,1013.29
2018-11-28T11:47:54.151Z,1013.28
2018-11-28T11:48:54.062Z,1013.25
2018-11-28T11:49:54.052Z,1013.28
2018-11-28T11:50:54.101Z,1013.30
2018-11-28T11:51:54.038Z,1013.29
2018-11-28T11:52:54.017Z,1013.26
2018-11-28T11:53:54.043Z,1013.24
2018-11-28T11:54:54.001Z,1013.32
2018-11-28T11:55:53.995Z,1013.25
2018-11-28T11:56:53.989Z,1013.34
2018-11-28T11:57:53.977Z,1013.27
2018-11-28T11:58:53.981Z,1013.27
2018-11-28T11:59:53.929Z,1013.32
2018-11-28T12:00:53.946Z,1013.29
2018-11-28T12:01:54.883Z,1013.29
2018-11-28T12:02:53.990Z,1013.34
2018-11-28T12:03:54.010Z,1013.34
2018-11-28T12:04:53.897Z,1013.28